Geronimo — PD6553 — position and weather

sailwx.info

Track history (hours):
 
Tides and Currents Weather Stations Pressure Air Temp Water Temp Dewpoint Dewpoint Depression Visibility Wind Speed Wind Dir Waves Ship Positions

Geronimo

Last reported at 2016-Jan-30 13:33 UTC. Time now 2016-Feb-07 05:51 UTC.
Position N 18°04' W 063°06'.

Length 20 m; draft 2.9 m.

Type: Sailing vessel. MMSI: 244620501.

Date/timePositionNaut miles runAvg speedWind from/ knotsBaromVisibWave heightAir tempDewpointWater temp
2016-Jan-30 13:33N 18°04' W 063°06'0 0.0
2016-Jan-30 11:17N 18°04' W 063°06'0 0.0
2016-Jan-30 08:33N 18°04' W 063°06'0 0.0
2016-Jan-30 06:15N 18°04' W 063°06'0 0.0
2016-Jan-30 05:29N 18°04' W 063°06'83 4.4
2016-Jan-29 10:31N 18°19' W 064°32'6 4.4
2016-Jan-29 09:16N 18°19' W 064°38'0 0.6
2016-Jan-29 08:30N 18°19' W 064°37'0 0.0
2016-Jan-29 07:33N 18°19' W 064°37'0 0.0
2016-Jan-29 06:23N 18°19' W 064°37'0 0.0
2016-Jan-29 05:28N 18°19' W 064°37'0 0.0
2016-Jan-29 04:31N 18°19' W 064°37'0 0.0
2016-Jan-29 03:32N 18°19' W 064°37'0 0.0
2016-Jan-29 02:33N 18°19' W 064°37'1 0.2
2016-Jan-28 19:11N 18°20' W 064°38'4 6.4
2016-Jan-28 18:33N 18°23' W 064°41'1 1.1
2016-Jan-28 17:33N 18°23' W 064°42'0 0.0
2016-Jan-28 16:33N 18°23' W 064°42'0 0.0
2016-Jan-28 15:33N 18°23' W 064°42'0 0.0
2016-Jan-28 14:33N 18°23' W 064°42'0 0.0
2016-Jan-28 13:33N 18°23' W 064°42'0 0.0
2016-Jan-28 12:33N 18°23' W 064°42'0 0.0
2016-Jan-28 11:33N 18°23' W 064°42'0 0.0
2016-Jan-28 10:33N 18°23' W 064°42'0 0.0
2016-Jan-28 09:33N 18°23' W 064°42'0 0.0
2016-Jan-28 08:33N 18°23' W 064°42'0 0.0
2016-Jan-28 07:33N 18°23' W 064°42'0 0.0
2016-Jan-28 06:33N 18°23' W 064°42'0 0.0
2016-Jan-28 05:33N 18°23' W 064°42'0 0.0
2016-Jan-28 04:33N 18°23' W 064°42'0 0.0
2016-Jan-28 03:33N 18°23' W 064°42'0 0.0
2016-Jan-28 02:32N 18°23' W 064°42'0 0.0
2016-Jan-28 01:33N 18°23' W 064°42'0 0.0
2016-Jan-28 00:33N 18°23' W 064°42'0 0.0
2016-Jan-27 23:33N 18°23' W 064°42'0 0.0
2016-Jan-27 22:33N 18°23' W 064°42'0 0.0
2016-Jan-27 21:33N 18°23' W 064°42'0 0.0
2016-Jan-27 20:33N 18°23' W 064°42'0 0.2
2016-Jan-27 19:33N 18°23' W 064°42'4 4.2
2016-Jan-27 18:33N 18°26' W 064°45'0 0.0
2016-Jan-27 17:33N 18°26' W 064°45'0 0.0
2016-Jan-27 16:33N 18°26' W 064°45'2 0.2
2016-Jan-27 01:33N 18°27' W 064°43'0 0.0
2016-Jan-27 00:33N 18°27' W 064°43'0 0.0
2016-Jan-26 23:33N 18°27' W 064°43'0 0.0
2016-Jan-26 22:33N 18°27' W 064°43'1 0.9
2016-Jan-26 21:33N 18°27' W 064°42'  
2016-Jan-22 21:31N 18°30' W 064°37'3 3.3
2016-Jan-22 20:34N 18°29' W 064°40'5 4.6
2016-Jan-22 19:34N 18°26' W 064°44'0 0.0
2016-Jan-22 18:34N 18°26' W 064°44'0 0.0
2016-Jan-22 17:33N 18°26' W 064°44'1 1.3
2016-Jan-22 16:33N 18°25' W 064°43'10 0.5
2016-Jan-21 21:33N 18°23' W 064°33'6 5.6
2016-Jan-21 20:34N 18°25' W 064°28'  
Track history (hours):
 
Tides and Currents Weather Stations Pressure Air Temp Water Temp Dewpoint Dewpoint Depression Visibility Wind Speed Wind Dir Waves Ship Positions

Geronimo

Last reported at 2016-Jan-30 13:33 UTC. Time now 2016-Feb-07 05:51 UTC.
Position N 18°04' W 063°06'.

Length 20 m; draft 2.9 m.

Type: Sailing vessel. MMSI: 244620501.

Date/timePositionNaut miles runAvg speedWind from/ knotsBaromVisibWave heightAir tempDewpointWater temp
2016-Jan-30 13:33N 18°04' W 063°06'0 0.0
2016-Jan-30 11:17N 18°04' W 063°06'0 0.0
2016-Jan-30 08:33N 18°04' W 063°06'0 0.0
2016-Jan-30 06:15N 18°04' W 063°06'0 0.0
2016-Jan-30 05:29N 18°04' W 063°06'83 4.4
2016-Jan-29 10:31N 18°19' W 064°32'6 4.4
2016-Jan-29 09:16N 18°19' W 064°38'0 0.6
2016-Jan-29 08:30N 18°19' W 064°37'0 0.0
2016-Jan-29 07:33N 18°19' W 064°37'0 0.0
2016-Jan-29 06:23N 18°19' W 064°37'0 0.0
2016-Jan-29 05:28N 18°19' W 064°37'0 0.0
2016-Jan-29 04:31N 18°19' W 064°37'0 0.0
2016-Jan-29 03:32N 18°19' W 064°37'0 0.0
2016-Jan-29 02:33N 18°19' W 064°37'1 0.2
2016-Jan-28 19:11N 18°20' W 064°38'4 6.4
2016-Jan-28 18:33N 18°23' W 064°41'1 1.1
2016-Jan-28 17:33N 18°23' W 064°42'0 0.0
2016-Jan-28 16:33N 18°23' W 064°42'0 0.0
2016-Jan-28 15:33N 18°23' W 064°42'0 0.0
2016-Jan-28 14:33N 18°23' W 064°42'0 0.0
2016-Jan-28 13:33N 18°23' W 064°42'0 0.0
2016-Jan-28 12:33N 18°23' W 064°42'0 0.0
2016-Jan-28 11:33N 18°23' W 064°42'0 0.0
2016-Jan-28 10:33N 18°23' W 064°42'0 0.0
2016-Jan-28 09:33N 18°23' W 064°42'0 0.0
2016-Jan-28 08:33N 18°23' W 064°42'0 0.0
2016-Jan-28 07:33N 18°23' W 064°42'0 0.0
2016-Jan-28 06:33N 18°23' W 064°42'0 0.0
2016-Jan-28 05:33N 18°23' W 064°42'0 0.0
2016-Jan-28 04:33N 18°23' W 064°42'0 0.0
2016-Jan-28 03:33N 18°23' W 064°42'0 0.0
2016-Jan-28 02:32N 18°23' W 064°42'0 0.0
2016-Jan-28 01:33N 18°23' W 064°42'0 0.0
2016-Jan-28 00:33N 18°23' W 064°42'0 0.0
2016-Jan-27 23:33N 18°23' W 064°42'0 0.0
2016-Jan-27 22:33N 18°23' W 064°42'0 0.0
2016-Jan-27 21:33N 18°23' W 064°42'0 0.0
2016-Jan-27 20:33N 18°23' W 064°42'0 0.2
2016-Jan-27 19:33N 18°23' W 064°42'4 4.2
2016-Jan-27 18:33N 18°26' W 064°45'0 0.0
2016-Jan-27 17:33N 18°26' W 064°45'0 0.0
2016-Jan-27 16:33N 18°26' W 064°45'2 0.2
2016-Jan-27 01:33N 18°27' W 064°43'0 0.0
2016-Jan-27 00:33N 18°27' W 064°43'0 0.0
2016-Jan-26 23:33N 18°27' W 064°43'0 0.0
2016-Jan-26 22:33N 18°27' W 064°43'1 0.9
2016-Jan-26 21:33N 18°27' W 064°42'  
2016-Jan-22 21:31N 18°30' W 064°37'3 3.3
2016-Jan-22 20:34N 18°29' W 064°40'5 4.6
2016-Jan-22 19:34N 18°26' W 064°44'0 0.0
2016-Jan-22 18:34N 18°26' W 064°44'0 0.0
2016-Jan-22 17:33N 18°26' W 064°44'1 1.3
2016-Jan-22 16:33N 18°25' W 064°43'10 0.5
2016-Jan-21 21:33N 18°23' W 064°33'6 5.6
2016-Jan-21 20:34N 18°25' W 064°28'  

Dump ship's entire track history